Time;durP1;ratioP1;P1;durP2;ratioP2;P2;SDS_P1;SDS_P2;PMS_P1;PMS_P2;Temp;Humidity;BMP_temperature;BMP_pressure;BME280_temperature;BME280_humidity;BME280_pressure;Samples;Min_cycle;Max_cycle;Signal;HPM_P1;HPM_P2
2021/06/16 00:02:15;;;;;;;0.00;0.00;;;;;;;;;;5098454;28;20333;-63
2021/06/16 00:04:42;;;;;;;0.10;0.10;;;;;;;;;;5102809;28;20211;-62
2021/06/16 00:07:09;;;;;;;0.00;0.00;;;;;;;;;;5103011;28;20209;-62
2021/06/16 00:09:36;;;;;;;0.10;0.10;;;;;;;;;;5099080;28;20416;-63
2021/06/16 00:12:02;;;;;;;0.08;0.08;;;;;;;;;;5101095;28;20202;-64
2021/06/16 00:14:29;;;;;;;0.05;0.05;;;;;;;;;;5102281;28;20271;-63
2021/06/16 00:16:55;;;;;;;0.10;0.10;;;;;;;;;;5089842;28;20198;-63
2021/06/16 00:19:21;;;;;;;0.00;0.00;;;;;;;;;;5102842;28;20208;-63
2021/06/16 00:21:48;;;;;;;0.00;0.00;;;;;;;;;;5103013;28;20500;-63
2021/06/16 00:24:19;;;;;;;0.00;0.00;;;;;;;;;;5102806;28;20210;-63
2021/06/16 00:26:45;;;;;;;0.10;0.10;;;;;;;;;;5084997;28;20488;-64
2021/06/16 00:29:11;;;;;;;0.05;0.05;;;;;;;;;;5082347;28;20556;-63
2021/06/16 00:31:38;;;;;;;0.10;0.10;;;;;;;;;;5098591;28;20271;-63
2021/06/16 00:34:04;;;;;;;0.00;0.00;;;;;;;;;;5102263;28;20199;-63
2021/06/16 00:36:30;;;;;;;0.10;0.10;;;;;;;;;;5088376;28;20203;-63
2021/06/16 00:38:58;;;;;;;0.10;0.10;;;;;;;;;;5088154;28;20282;-63
2021/06/16 00:41:26;;;;;;;0.00;0.00;;;;;;;;;;5090334;28;20325;-63
2021/06/16 00:43:52;;;;;;;0.10;0.10;;;;;;;;;;5086212;28;20209;-63
2021/06/16 00:46:19;;;;;;;0.10;0.10;;;;;;;;;;5102390;28;20233;-63
2021/06/16 00:48:45;;;;;;;0.05;0.05;;;;;;;;;;5102564;28;20287;-63
2021/06/16 00:51:11;;;;;;;0.00;0.00;;;;;;;;;;5086334;28;20476;-64
2021/06/16 00:53:37;;;;;;;0.00;0.00;;;;;;;;;;5086168;28;20225;-63
2021/06/16 00:56:04;;;;;;;0.00;0.00;;;;;;;;;;5093010;28;20209;-63
2021/06/16 00:58:31;;;;;;;0.10;0.10;;;;;;;;;;5106287;28;20490;-63
2021/06/16 01:01:00;;;;;;;0.00;0.00;;;;;;;;;;5101135;28;20203;-63
2021/06/16 01:03:28;;;;;;;0.00;0.00;;;;;;;;;;5097395;28;20244;-63
2021/06/16 01:05:58;;;;;;;0.00;0.00;;;;;;;;;;5087844;28;20507;-63
2021/06/16 01:08:27;;;;;;;0.00;0.00;;;;;;;;;;5092553;28;20635;-63
2021/06/16 01:10:54;;;;;;;0.10;0.10;;;;;;;;;;5092702;28;20219;-63
2021/06/16 01:13:23;;;;;;;0.10;0.10;;;;;;;;;;5085495;28;20203;-63
2021/06/16 01:15:54;;;;;;;0.00;0.00;;;;;;;;;;5097260;28;20205;-63
2021/06/16 01:18:21;;;;;;;0.10;0.10;;;;;;;;;;5091329;28;20204;-63
2021/06/16 01:20:49;;;;;;;0.00;0.00;;;;;;;;;;5095335;28;20508;-63
2021/06/16 01:23:20;;;;;;;0.00;0.00;;;;;;;;;;5088310;28;20232;-62
2021/06/16 01:25:47;;;;;;;0.00;0.00;;;;;;;;;;5106032;28;20285;-62
2021/06/16 01:28:16;;;;;;;0.10;0.10;;;;;;;;;;5089812;28;20206;-62
2021/06/16 01:30:43;;;;;;;0.00;0.00;;;;;;;;;;5094356;28;20255;-63
2021/06/16 01:33:11;;;;;;;0.00;0.00;;;;;;;;;;5105403;28;20202;-63
2021/06/16 01:35:38;;;;;;;0.00;0.00;;;;;;;;;;5085593;28;20215;-63
2021/06/16 01:38:05;;;;;;;0.00;0.00;;;;;;;;;;5098855;28;20481;-63
2021/06/16 01:40:32;;;;;;;0.10;0.10;;;;;;;;;;5105751;28;20386;-63
2021/06/16 01:42:59;;;;;;;0.00;0.00;;;;;;;;;;5105473;28;20537;-63
2021/06/16 01:45:28;;;;;;;0.10;0.10;;;;;;;;;;5091098;28;20221;-63
2021/06/16 01:47:55;;;;;;;0.10;0.10;;;;;;;;;;5095462;28;20221;-63
2021/06/16 01:50:21;;;;;;;0.10;0.10;;;;;;;;;;5099475;28;20227;-63
2021/06/16 01:52:49;;;;;;;0.03;0.03;;;;;;;;;;5092972;28;20300;-62
2021/06/16 01:55:16;;;;;;;0.07;0.07;;;;;;;;;;5085247;28;20433;-63
2021/06/16 01:57:44;;;;;;;0.00;0.00;;;;;;;;;;5099026;28;20203;-63
2021/06/16 02:00:10;;;;;;;0.10;0.10;;;;;;;;;;5096961;28;20293;-62
2021/06/16 02:02:38;;;;;;;0.10;0.10;;;;;;;;;;5090849;28;20201;-63
2021/06/16 02:05:05;;;;;;;0.00;0.00;;;;;;;;;;5105327;28;20483;-63
2021/06/16 02:07:32;;;;;;;0.00;0.00;;;;;;;;;;5091188;28;20339;-63
2021/06/16 02:09:59;;;;;;;0.10;0.10;;;;;;;;;;5085259;28;20229;-63
2021/06/16 02:12:27;;;;;;;0.10;0.10;;;;;;;;;;5096539;28;20221;-63
2021/06/16 02:14:56;;;;;;;0.10;0.10;;;;;;;;;;5086775;28;20206;-63
2021/06/16 02:17:23;;;;;;;0.07;0.07;;;;;;;;;;5084580;28;20228;-63
2021/06/16 02:19:50;;;;;;;0.00;0.00;;;;;;;;;;5098982;28;20316;-64
2021/06/16 02:22:17;;;;;;;0.00;0.00;;;;;;;;;;5093620;28;20212;-63
2021/06/16 02:24:45;;;;;;;0.10;0.10;;;;;;;;;;5104890;28;20450;-63
2021/06/16 02:27:11;;;;;;;0.03;0.03;;;;;;;;;;5097858;28;20320;-62
2021/06/16 02:29:37;;;;;;;0.00;0.00;;;;;;;;;;5084648;28;20279;-63
2021/06/16 02:32:04;;;;;;;0.00;0.00;;;;;;;;;;5084490;28;20245;-63
2021/06/16 02:34:30;;;;;;;0.10;0.10;;;;;;;;;;5095912;28;20220;-63
2021/06/16 02:37:00;;;;;;;0.10;0.10;;;;;;;;;;5086480;28;20243;-63
2021/06/16 02:39:29;;;;;;;0.10;0.10;;;;;;;;;;5094659;28;20204;-62
2021/06/16 02:41:56;;;;;;;0.10;0.10;;;;;;;;;;5099981;28;20204;-63
2021/06/16 02:44:23;;;;;;;0.10;0.10;;;;;;;;;;5084655;28;20205;-63
2021/06/16 02:46:50;;;;;;;0.10;0.10;;;;;;;;;;5099065;28;20211;-63
2021/06/16 02:49:17;;;;;;;0.00;0.00;;;;;;;;;;5102995;28;20225;-63
2021/06/16 02:51:43;;;;;;;0.00;0.00;;;;;;;;;;5084104;28;20421;-62
2021/06/16 02:54:14;;;;;;;0.00;0.00;;;;;;;;;;5096679;28;20225;-63
2021/06/16 02:56:41;;;;;;;0.07;0.07;;;;;;;;;;5104445;28;20246;-63
2021/06/16 02:59:10;;;;;;;0.10;0.10;;;;;;;;;;5104187;28;20390;-62
2021/06/16 03:01:36;;;;;;;0.10;0.10;;;;;;;;;;5096019;28;20251;-63
2021/06/16 03:04:03;;;;;;;0.00;0.00;;;;;;;;;;5097907;28;20381;-63
2021/06/16 03:06:29;;;;;;;0.10;0.10;;;;;;;;;;5083744;28;20236;-63
2021/06/16 03:08:56;;;;;;;0.10;0.10;;;;;;;;;;5083482;28;20398;-63
2021/06/16 03:11:24;;;;;;;0.10;0.10;;;;;;;;;;5086169;28;20208;-62
2021/06/16 03:13:51;;;;;;;0.03;0.03;;;;;;;;;;5104062;28;20384;-62
2021/06/16 03:16:18;;;;;;;0.07;0.07;;;;;;;;;;5086868;28;20496;-63
2021/06/16 03:18:45;;;;;;;0.10;0.10;;;;;;;;;;5092362;28;20476;-62
2021/06/16 03:21:13;;;;;;;0.07;0.07;;;;;;;;;;5103479;28;20590;-62
2021/06/16 03:23:40;;;;;;;0.10;0.10;;;;;;;;;;5083757;28;20407;-62
2021/06/16 03:26:06;;;;;;;0.10;0.10;;;;;;;;;;5083748;28;20274;-62
2021/06/16 03:28:35;;;;;;;0.10;0.10;;;;;;;;;;5102458;28;20208;-63
2021/06/16 03:31:02;;;;;;;0.10;0.10;;;;;;;;;;5102537;28;20281;-64
2021/06/16 03:33:28;;;;;;;0.10;0.10;;;;;;;;;;5089048;28;20208;-62
2021/06/16 03:35:55;;;;;;;0.10;0.10;;;;;;;;;;5103532;28;20484;-61
2021/06/16 03:38:21;;;;;;;0.10;0.10;;;;;;;;;;5087748;28;20204;-63
2021/06/16 03:40:49;;;;;;;0.00;0.00;;;;;;;;;;5083030;28;20399;-62
2021/06/16 03:43:16;;;;;;;0.10;0.10;;;;;;;;;;5096803;28;20365;-62
2021/06/16 03:45:44;;;;;;;0.10;0.10;;;;;;;;;;5097293;28;20204;-62
2021/06/16 03:48:13;;;;;;;0.10;0.10;;;;;;;;;;5095369;28;20212;-62
2021/06/16 03:50:40;;;;;;;0.10;0.10;;;;;;;;;;5098475;28;20451;-62
2021/06/16 03:53:09;;;;;;;0.10;0.10;;;;;;;;;;5094263;28;20268;-63
2021/06/16 03:55:35;;;;;;;0.03;0.03;;;;;;;;;;5088565;28;20205;-62
2021/06/16 03:58:03;;;;;;;0.10;0.10;;;;;;;;;;5093441;28;20200;-61
2021/06/16 04:00:29;;;;;;;0.10;0.10;;;;;;;;;;5083333;28;20426;-63
2021/06/16 04:02:56;;;;;;;0.10;0.10;;;;;;;;;;5095921;28;20374;-63
2021/06/16 04:05:23;;;;;;;0.00;0.00;;;;;;;;;;5095569;28;20208;-62
2021/06/16 04:07:50;;;;;;;0.10;0.10;;;;;;;;;;5097856;28;20218;-63
2021/06/16 04:10:18;;;;;;;0.00;0.00;;;;;;;;;;5082534;28;20230;-62
2021/06/16 04:12:45;;;;;;;0.03;0.03;;;;;;;;;;5086473;28;20238;-63
2021/06/16 04:15:12;;;;;;;0.07;0.07;;;;;;;;;;5093580;28;20202;-63
2021/06/16 04:17:38;;;;;;;0.00;0.00;;;;;;;;;;5084611;28;20279;-63
2021/06/16 04:20:07;;;;;;;0.10;0.10;;;;;;;;;;5102329;28;20243;-63
2021/06/16 04:22:34;;;;;;;0.10;0.10;;;;;;;;;;5088103;28;20208;-63
2021/06/16 04:25:01;;;;;;;0.10;0.10;;;;;;;;;;5082986;28;20221;-63
2021/06/16 04:27:27;;;;;;;0.00;0.00;;;;;;;;;;5095641;28;20464;-62
2021/06/16 04:29:53;;;;;;;0.00;0.00;;;;;;;;;;5102991;28;20481;-62
2021/06/16 04:32:21;;;;;;;0.10;0.10;;;;;;;;;;5102811;28;20199;-62
2021/06/16 04:34:47;;;;;;;0.10;0.10;;;;;;;;;;5085986;28;20201;-62
2021/06/16 04:37:14;;;;;;;0.00;0.00;;;;;;;;;;5082516;28;20207;-62
2021/06/16 04:39:41;;;;;;;0.10;0.10;;;;;;;;;;5097020;28;20204;-62
2021/06/16 04:42:07;;;;;;;0.10;0.10;;;;;;;;;;5082542;28;20213;-61
2021/06/16 04:44:34;;;;;;;0.03;0.03;;;;;;;;;;5082507;28;20275;-62
2021/06/16 04:47:00;;;;;;;0.10;0.10;;;;;;;;;;5096229;28;20201;-62
2021/06/16 04:49:28;;;;;;;0.00;0.00;;;;;;;;;;5094337;28;20230;-62
2021/06/16 04:51:54;;;;;;;0.07;0.07;;;;;;;;;;5088619;28;20200;-63
2021/06/16 04:54:22;;;;;;;0.00;0.00;;;;;;;;;;5103153;28;20205;-62
2021/06/16 04:56:48;;;;;;;0.00;0.00;;;;;;;;;;5102313;28;20490;-62
2021/06/16 04:59:14;;;;;;;0.10;0.10;;;;;;;;;;5098484;28;20247;-62
2021/06/16 05:01:40;;;;;;;0.10;0.10;;;;;;;;;;5082143;28;20205;-62
2021/06/16 05:04:07;;;;;;;0.00;0.00;;;;;;;;;;5099055;28;20210;-62
2021/06/16 05:06:33;;;;;;;0.10;0.10;;;;;;;;;;5093958;28;20206;-62
2021/06/16 05:08:59;;;;;;;0.10;0.10;;;;;;;;;;5086157;28;20342;-62
2021/06/16 05:11:27;;;;;;;0.10;0.10;;;;;;;;;;5102269;28;20225;-62
2021/06/16 05:13:53;;;;;;;0.07;0.07;;;;;;;;;;5089285;28;20250;-62
2021/06/16 05:16:19;;;;;;;0.00;0.00;;;;;;;;;;5101662;28;20211;-62
2021/06/16 05:18:47;;;;;;;0.10;0.10;;;;;;;;;;5102841;28;20228;-62
2021/06/16 05:21:14;;;;;;;0.10;0.10;;;;;;;;;;5088104;28;20195;-62
2021/06/16 05:23:40;;;;;;;0.10;0.10;;;;;;;;;;5093015;28;20210;-62
2021/06/16 05:26:06;;;;;;;0.10;0.10;;;;;;;;;;5083443;28;20226;-62
2021/06/16 05:28:34;;;;;;;0.10;0.10;;;;;;;;;;5094821;28;20212;-62
2021/06/16 05:31:00;;;;;;;0.10;0.10;;;;;;;;;;5096036;28;20232;-62
2021/06/16 05:33:27;;;;;;;0.10;0.10;;;;;;;;;;5096330;28;20571;-61
2021/06/16 05:35:53;;;;;;;0.10;0.10;;;;;;;;;;5097126;28;20206;-62
2021/06/16 05:38:19;;;;;;;0.10;0.10;;;;;;;;;;5101778;28;20206;-61
2021/06/16 05:40:45;;;;;;;0.00;0.00;;;;;;;;;;5086025;28;20338;-62
2021/06/16 05:43:12;;;;;;;0.10;0.10;;;;;;;;;;5100015;28;20205;-63
2021/06/16 05:45:39;;;;;;;0.10;0.10;;;;;;;;;;5085630;28;20504;-63
2021/06/16 05:48:06;;;;;;;0.10;0.10;;;;;;;;;;5085732;28;20227;-62
2021/06/16 05:50:32;;;;;;;0.07;0.07;;;;;;;;;;5105442;28;20233;-62
2021/06/16 05:52:58;;;;;;;0.00;0.00;;;;;;;;;;5093245;28;20496;-63
2021/06/16 05:55:24;;;;;;;0.10;0.10;;;;;;;;;;5090000;28;20236;-63
2021/06/16 05:57:51;;;;;;;0.10;0.10;;;;;;;;;;5098742;28;20237;-63
2021/06/16 06:00:17;;;;;;;0.00;0.00;;;;;;;;;;5097332;28;20465;-63
2021/06/16 06:02:45;;;;;;;0.00;0.00;;;;;;;;;;5099125;28;20210;-59
2021/06/16 06:05:11;;;;;;;0.10;0.10;;;;;;;;;;5085565;28;20210;-63
2021/06/16 06:07:38;;;;;;;0.10;0.10;;;;;;;;;;5099317;28;20261;-63
2021/06/16 06:10:04;;;;;;;0.10;0.10;;;;;;;;;;5102591;28;20242;-63
2021/06/16 06:12:31;;;;;;;0.00;0.00;;;;;;;;;;5103141;28;20267;-63
2021/06/16 06:14:57;;;;;;;0.00;0.00;;;;;;;;;;5095360;28;20201;-62
2021/06/16 06:17:23;;;;;;;0.00;0.00;;;;;;;;;;5103922;28;20202;-63
2021/06/16 06:19:51;;;;;;;0.10;0.10;;;;;;;;;;5101032;28;20203;-63
2021/06/16 06:22:17;;;;;;;0.10;0.10;;;;;;;;;;5093233;28;20236;-63
2021/06/16 06:24:43;;;;;;;0.10;0.10;;;;;;;;;;5100909;28;20276;-63
2021/06/16 06:27:09;;;;;;;0.03;0.03;;;;;;;;;;5094555;28;20213;-63
2021/06/16 06:29:36;;;;;;;0.07;0.07;;;;;;;;;;5088408;28;20264;-62
2021/06/16 06:32:02;;;;;;;0.10;0.10;;;;;;;;;;5088488;28;20203;-62
2021/06/16 06:34:29;;;;;;;0.10;0.10;;;;;;;;;;5085529;28;20478;-64
2021/06/16 06:36:56;;;;;;;0.10;0.10;;;;;;;;;;5101026;28;20232;-63
2021/06/16 06:39:23;;;;;;;0.10;0.10;;;;;;;;;;5100417;28;20210;-63
2021/06/16 06:41:49;;;;;;;0.00;0.00;;;;;;;;;;5086444;28;20199;-63
2021/06/16 06:44:15;;;;;;;0.05;0.05;;;;;;;;;;5095748;28;20207;-63
2021/06/16 06:46:41;;;;;;;0.10;0.10;;;;;;;;;;5090633;28;20318;-63
2021/06/16 06:49:08;;;;;;;0.10;0.10;;;;;;;;;;5099008;28;20494;-63
2021/06/16 06:51:35;;;;;;;0.08;0.08;;;;;;;;;;5090560;28;20234;-63
2021/06/16 06:54:02;;;;;;;0.00;0.00;;;;;;;;;;5104807;28;20206;-63
2021/06/16 06:56:29;;;;;;;0.00;0.00;;;;;;;;;;5092702;28;20375;-62
2021/06/16 06:58:55;;;;;;;0.10;0.10;;;;;;;;;;5102986;28;20432;-63
2021/06/16 07:01:21;;;;;;;0.08;0.08;;;;;;;;;;5101194;28;20218;-63
2021/06/16 07:03:47;;;;;;;0.05;0.05;;;;;;;;;;5104733;28;20207;-64
2021/06/16 07:06:13;;;;;;;0.10;0.10;;;;;;;;;;5083965;28;20328;-64
2021/06/16 07:08:40;;;;;;;0.00;0.00;;;;;;;;;;5096446;28;20406;-63
2021/06/16 07:11:08;;;;;;;0.00;0.00;;;;;;;;;;5100317;28;20229;-64
2021/06/16 07:13:34;;;;;;;0.00;0.00;;;;;;;;;;5094414;28;20286;-63
2021/06/16 07:16:01;;;;;;;0.08;0.08;;;;;;;;;;5101699;28;20203;-66
2021/06/16 07:18:27;;;;;;;0.08;0.08;;;;;;;;;;5092191;28;20203;-62
2021/06/16 07:20:54;;;;;;;0.00;0.00;;;;;;;;;;5103795;28;20252;-63
2021/06/16 07:23:21;;;;;;;0.00;0.00;;;;;;;;;;5087282;28;20203;-70
2021/06/16 07:25:47;;;;;;;0.00;0.00;;;;;;;;;;5102429;28;20415;-74
2021/06/16 07:28:15;;;;;;;0.00;0.00;;;;;;;;;;5092995;28;20273;-75
2021/06/16 07:30:41;;;;;;;0.00;0.00;;;;;;;;;;5100179;28;20485;-75
2021/06/16 07:33:09;;;;;;;0.00;0.00;;;;;;;;;;5097778;28;20546;-73
2021/06/16 07:35:35;;;;;;;0.00;0.00;;;;;;;;;;5093628;28;20211;-76
2021/06/16 07:38:02;;;;;;;0.00;0.00;;;;;;;;;;5098765;28;20277;-74
2021/06/16 07:40:29;;;;;;;0.00;0.00;;;;;;;;;;5089898;28;20226;-73
2021/06/16 07:42:55;;;;;;;0.05;0.05;;;;;;;;;;5093868;28;20234;-74
2021/06/16 07:45:23;;;;;;;0.00;0.00;;;;;;;;;;5092836;28;20201;-69
2021/06/16 07:47:49;;;;;;;0.00;0.00;;;;;;;;;;5103098;28;20262;-70
2021/06/16 07:50:16;;;;;;;0.00;0.00;;;;;;;;;;5096496;28;20213;-69
2021/06/16 07:52:42;;;;;;;0.03;0.03;;;;;;;;;;5084086;28;20499;-69
2021/06/16 07:55:09;;;;;;;0.00;0.00;;;;;;;;;;5100911;28;20202;-68
2021/06/16 07:57:35;;;;;;;0.08;0.08;;;;;;;;;;5096193;28;20481;-69
2021/06/16 08:00:02;;;;;;;0.08;0.08;;;;;;;;;;5092459;28;20273;-70
2021/06/16 08:02:30;;;;;;;0.10;0.10;;;;;;;;;;5086220;28;20249;-72
2021/06/16 08:04:57;;;;;;;0.00;0.00;;;;;;;;;;5103283;28;20265;-69
2021/06/16 08:07:24;;;;;;;0.00;0.00;;;;;;;;;;5096990;28;20206;-72
2021/06/16 08:09:51;;;;;;;0.00;0.00;;;;;;;;;;5095642;28;20220;-74
2021/06/16 08:12:18;;;;;;;0.10;0.10;;;;;;;;;;5095623;28;20221;-71
2021/06/16 08:14:44;;;;;;;0.05;0.05;;;;;;;;;;5085716;28;20230;-72
2021/06/16 08:17:11;;;;;;;0.00;0.00;;;;;;;;;;5103555;28;20205;-70
2021/06/16 08:19:39;;;;;;;0.00;0.00;;;;;;;;;;5099505;28;20305;-70
2021/06/16 08:22:08;;;;;;;0.00;0.00;;;;;;;;;;5103750;28;20208;-70
2021/06/16 08:24:34;;;;;;;0.00;0.00;;;;;;;;;;5101005;28;21699;-71
2021/06/16 08:27:00;;;;;;;0.00;0.00;;;;;;;;;;5093955;28;20205;-72
2021/06/16 08:29:27;;;;;;;0.00;0.00;;;;;;;;;;5093769;28;20227;-71
2021/06/16 08:31:54;;;;;;;0.00;0.00;;;;;;;;;;5094003;28;20225;-70
2021/06/16 08:34:20;;;;;;;0.00;0.00;;;;;;;;;;5098294;28;20388;-71
2021/06/16 08:36:49;;;;;;;0.00;0.00;;;;;;;;;;5101138;28;20199;-69
2021/06/16 08:39:16;;;;;;;0.00;0.00;;;;;;;;;;5091944;28;20450;-71
2021/06/16 08:41:42;;;;;;;0.10;0.10;;;;;;;;;;5098905;28;20219;-70
2021/06/16 08:44:10;;;;;;;0.05;0.05;;;;;;;;;;5097708;28;20200;-71
2021/06/16 08:46:37;;;;;;;0.10;0.10;;;;;;;;;;5093476;28;20205;-70
2021/06/16 08:49:04;;;;;;;0.03;0.03;;;;;;;;;;5100888;28;20426;-71
2021/06/16 08:51:30;;;;;;;0.00;0.00;;;;;;;;;;5102036;28;20238;-70
2021/06/16 08:53:58;;;;;;;0.00;0.00;;;;;;;;;;5091375;28;20516;-70
2021/06/16 08:56:24;;;;;;;0.00;0.00;;;;;;;;;;5089730;28;20209;-71
2021/06/16 08:58:51;;;;;;;0.00;0.00;;;;;;;;;;5097646;28;20205;-70
2021/06/16 09:01:17;;;;;;;0.00;0.00;;;;;;;;;;5102697;28;20198;-69
2021/06/16 09:03:44;;;;;;;0.00;0.00;;;;;;;;;;5102952;28;20385;-69
2021/06/16 09:06:12;;;;;;;0.00;0.00;;;;;;;;;;5102960;28;20227;-70
2021/06/16 09:08:53;;;;;;;0.00;0.00;;;;;;;;;;5100651;28;20268;-68
2021/06/16 09:11:21;;;;;;;0.00;0.00;;;;;;;;;;5090351;28;20325;-70
2021/06/16 09:13:48;;;;;;;0.00;0.00;;;;;;;;;;5086833;28;20374;-69
2021/06/16 09:16:25;;;;;;;0.00;0.00;;;;;;;;;;5100894;28;20217;-69
2021/06/16 09:18:51;;;;;;;0.00;0.00;;;;;;;;;;5088310;28;20197;-69
2021/06/16 09:21:31;;;;;;;0.00;0.00;;;;;;;;;;5094190;28;20242;-71
2021/06/16 09:23:57;;;;;;;0.00;0.00;;;;;;;;;;5088693;28;20256;-73
2021/06/16 09:26:29;;;;;;;0.00;0.00;;;;;;;;;;5090147;28;20237;-71
2021/06/16 09:28:56;;;;;;;0.00;0.00;;;;;;;;;;5099278;28;20274;-71
2021/06/16 09:31:23;;;;;;;0.00;0.00;;;;;;;;;;5105484;28;20524;-71
2021/06/16 09:33:50;;;;;;;0.00;0.00;;;;;;;;;;5099123;28;20203;-71
2021/06/16 09:36:17;;;;;;;0.00;0.00;;;;;;;;;;5096177;28;20229;-69
2021/06/16 09:38:46;;;;;;;0.00;0.00;;;;;;;;;;5095013;28;20205;-69
2021/06/16 09:41:12;;;;;;;0.00;0.00;;;;;;;;;;5091176;28;20204;-70
2021/06/16 09:43:41;;;;;;;0.00;0.00;;;;;;;;;;5101367;28;20451;-69
2021/06/16 09:46:08;;;;;;;0.00;0.00;;;;;;;;;;5101073;28;20486;-69
2021/06/16 09:48:36;;;;;;;0.00;0.00;;;;;;;;;;5096615;28;20213;-70
2021/06/16 09:51:09;;;;;;;0.00;0.00;;;;;;;;;;5100694;28;20289;-70
2021/06/16 09:53:35;;;;;;;0.00;0.00;;;;;;;;;;5097165;28;20206;-70
2021/06/16 09:56:14;;;;;;;0.00;0.00;;;;;;;;;;5099125;28;20298;-70
2021/06/16 09:58:42;;;;;;;0.00;0.00;;;;;;;;;;5099427;28;20207;-70
2021/06/16 10:01:08;;;;;;;0.00;0.00;;;;;;;;;;5106001;28;20198;-69
2021/06/16 10:03:34;;;;;;;0.00;0.00;;;;;;;;;;5106307;28;20207;-70
2021/06/16 10:06:05;;;;;;;0.00;0.00;;;;;;;;;;5087950;28;20203;-69
2021/06/16 10:08:31;;;;;;;0.00;0.00;;;;;;;;;;5085469;28;20203;-68
2021/06/16 10:10:58;;;;;;;0.00;0.00;;;;;;;;;;5099192;28;20353;-70
2021/06/16 10:13:25;;;;;;;0.00;0.00;;;;;;;;;;5095297;28;20210;-72
2021/06/16 10:15:53;;;;;;;0.00;0.00;;;;;;;;;;5100994;28;20226;-72
2021/06/16 10:18:20;;;;;;;0.00;0.00;;;;;;;;;;5090260;28;20217;-72
2021/06/16 10:20:47;;;;;;;0.00;0.00;;;;;;;;;;5084138;28;20207;-70
2021/06/16 10:23:13;;;;;;;0.00;0.00;;;;;;;;;;5103445;28;20203;-71
2021/06/16 10:25:39;;;;;;;0.00;0.00;;;;;;;;;;5105273;28;20450;-70
2021/06/16 10:28:07;;;;;;;0.00;0.00;;;;;;;;;;5102550;28;20226;-71
2021/06/16 10:30:38;;;;;;;0.00;0.00;;;;;;;;;;5089553;28;20214;-72
2021/06/16 10:33:26;;;;;;;0.00;0.00;;;;;;;;;;5104202;28;20513;-76
2021/06/16 10:36:05;;;;;;;0.00;0.00;;;;;;;;;;5098414;28;20430;-78
2021/06/16 10:38:32;;;;;;;0.00;0.00;;;;;;;;;;5092620;28;20199;-76
2021/06/16 10:40:59;;;;;;;0.00;0.00;;;;;;;;;;5093632;28;20249;-75
2021/06/16 10:43:32;;;;;;;0.00;0.00;;;;;;;;;;5094811;28;20470;-72
2021/06/16 10:46:08;;;;;;;0.00;0.00;;;;;;;;;;5097107;28;20199;-71
2021/06/16 10:48:51;;;;;;;0.00;0.00;;;;;;;;;;5094234;28;20203;-72
2021/06/16 10:51:34;;;;;;;0.00;0.00;;;;;;;;;;5093475;28;20254;-72
2021/06/16 10:54:14;;;;;;;0.00;0.00;;;;;;;;;;5094018;28;20346;-72
2021/06/16 10:56:41;;;;;;;0.00;0.00;;;;;;;;;;5099766;28;20232;-72
2021/06/16 10:59:08;;;;;;;0.00;0.00;;;;;;;;;;5094938;28;20203;-72
2021/06/16 11:01:46;;;;;;;0.00;0.00;;;;;;;;;;5099388;28;20199;-72
2021/06/16 11:04:26;;;;;;;0.00;0.00;;;;;;;;;;5088439;28;20194;-72
2021/06/16 11:06:53;;;;;;;0.00;0.00;;;;;;;;;;5097382;28;20255;-71
2021/06/16 11:09:19;;;;;;;0.00;0.00;;;;;;;;;;5096069;28;20253;-71
2021/06/16 11:12:04;;;;;;;0.00;0.00;;;;;;;;;;5089043;28;20215;-71
2021/06/16 11:14:48;;;;;;;0.00;0.00;;;;;;;;;;5097801;28;20210;-71
2021/06/16 11:17:32;;;;;;;0.00;0.00;;;;;;;;;;5094669;28;20229;-70
2021/06/16 11:20:00;;;;;;;0.00;0.00;;;;;;;;;;5083986;28;20502;-70
2021/06/16 11:22:39;;;;;;;0.00;0.00;;;;;;;;;;5094991;28;20281;-71
2021/06/16 11:25:14;;;;;;;0.00;0.00;;;;;;;;;;5101714;28;20257;-69
2021/06/16 11:27:58;;;;;;;0.00;0.00;;;;;;;;;;5097475;28;20251;-74
2021/06/16 11:30:31;;;;;;;0.00;0.00;;;;;;;;;;5088448;28;20279;-72
2021/06/16 11:33:17;;;;;;;0.00;0.00;;;;;;;;;;5090989;28;20245;-72
2021/06/16 11:35:46;;;;;;;0.00;0.00;;;;;;;;;;5095949;28;20207;-67
2021/06/16 11:38:13;;;;;;;0.00;0.00;;;;;;;;;;5102984;28;20207;-69
2021/06/16 11:40:39;;;;;;;0.08;0.08;;;;;;;;;;5103789;28;20203;-70
2021/06/16 11:43:06;;;;;;;0.00;0.00;;;;;;;;;;5093909;28;20501;-69
2021/06/16 11:45:33;;;;;;;0.00;0.00;;;;;;;;;;5090777;28;20211;-69
2021/06/16 11:48:00;;;;;;;0.00;0.00;;;;;;;;;;5098234;28;20450;-70
2021/06/16 11:50:27;;;;;;;0.00;0.00;;;;;;;;;;5095331;28;20555;-70
2021/06/16 11:52:59;;;;;;;0.00;0.00;;;;;;;;;;5091203;28;20556;-69
2021/06/16 11:55:42;;;;;;;0.00;0.00;;;;;;;;;;5085142;28;20200;-69
2021/06/16 11:58:24;;;;;;;0.00;0.00;;;;;;;;;;5097747;28;20267;-70
2021/06/16 12:00:52;;;;;;;0.00;0.00;;;;;;;;;;5094503;28;20233;-70
2021/06/16 12:03:18;;;;;;;0.00;0.00;;;;;;;;;;5102233;28;20559;-68
2021/06/16 12:05:45;;;;;;;0.00;0.00;;;;;;;;;;5090116;28;20259;-69
2021/06/16 12:08:21;;;;;;;0.00;0.00;;;;;;;;;;5103089;28;20211;-69
2021/06/16 12:10:47;;;;;;;0.00;0.00;;;;;;;;;;5100424;28;20210;-70
2021/06/16 12:13:13;;;;;;;0.00;0.00;;;;;;;;;;5098780;28;20564;-68
2021/06/16 12:15:41;;;;;;;0.00;0.00;;;;;;;;;;5097081;28;20427;-68
2021/06/16 12:18:09;;;;;;;0.00;0.00;;;;;;;;;;5102754;28;20199;-72
2021/06/16 12:20:38;;;;;;;0.00;0.00;;;;;;;;;;5101193;28;20339;-70
2021/06/16 12:23:20;;;;;;;0.00;0.00;;;;;;;;;;5103499;28;20199;-70
2021/06/16 12:25:46;;;;;;;0.00;0.00;;;;;;;;;;5087504;28;20272;-73
2021/06/16 12:28:14;;;;;;;0.00;0.00;;;;;;;;;;5088585;28;20196;-73
2021/06/16 12:30:41;;;;;;;0.00;0.00;;;;;;;;;;5091251;28;20227;-69
2021/06/16 12:33:20;;;;;;;0.00;0.00;;;;;;;;;;5094042;28;20454;-70
2021/06/16 12:35:59;;;;;;;0.00;0.00;;;;;;;;;;5082711;28;20202;-70
2021/06/16 12:38:41;;;;;;;0.00;0.00;;;;;;;;;;5084882;28;20294;-69
2021/06/16 12:41:24;;;;;;;0.00;0.00;;;;;;;;;;5081749;28;20207;-68
2021/06/16 12:43:51;;;;;;;0.10;0.10;;;;;;;;;;5087392;28;20207;-69
2021/06/16 12:46:18;;;;;;;0.10;0.10;;;;;;;;;;5105454;28;20202;-70
2021/06/16 12:48:44;;;;;;;0.00;0.00;;;;;;;;;;5106739;28;20318;-70
2021/06/16 12:51:10;;;;;;;0.00;0.00;;;;;;;;;;5085684;28;20203;-69
2021/06/16 12:53:38;;;;;;;0.00;0.00;;;;;;;;;;5098310;28;20226;-70
2021/06/16 12:56:06;;;;;;;0.00;0.00;;;;;;;;;;5097503;28;20223;-70
2021/06/16 12:58:44;;;;;;;0.00;0.00;;;;;;;;;;5099288;28;20421;-70
2021/06/16 13:01:15;;;;;;;0.00;0.00;;;;;;;;;;5100425;28;20266;-70
2021/06/16 13:03:45;;;;;;;0.00;0.00;;;;;;;;;;5093354;28;20202;-69
2021/06/16 13:06:12;;;;;;;0.00;0.00;;;;;;;;;;5095431;28;20195;-69
2021/06/16 13:08:39;;;;;;;0.00;0.00;;;;;;;;;;5098552;28;20208;-70
2021/06/16 13:11:20;;;;;;;0.00;0.00;;;;;;;;;;5101429;28;20268;-70
2021/06/16 13:13:46;;;;;;;0.00;0.00;;;;;;;;;;5100119;28;20233;-70
2021/06/16 13:16:21;;;;;;;0.00;0.00;;;;;;;;;;5094133;28;20271;-69
2021/06/16 13:18:48;;;;;;;0.00;0.00;;;;;;;;;;5099323;28;20253;-70
2021/06/16 13:21:14;;;;;;;0.00;0.00;;;;;;;;;;5091603;28;20206;-71
2021/06/16 13:23:50;;;;;;;0.00;0.00;;;;;;;;;;5088871;28;20270;-72
2021/06/16 13:26:16;;;;;;;0.00;0.00;;;;;;;;;;5100390;28;20236;-72
2021/06/16 13:28:45;;;;;;;0.00;0.00;;;;;;;;;;5100697;28;20482;-71
2021/06/16 13:31:19;;;;;;;0.00;0.00;;;;;;;;;;5098973;28;20539;-71
2021/06/16 13:33:46;;;;;;;0.00;0.00;;;;;;;;;;5102771;28;20219;-71
2021/06/16 13:36:13;;;;;;;0.00;0.00;;;;;;;;;;5096459;28;20207;-71
2021/06/16 13:38:41;;;;;;;0.00;0.00;;;;;;;;;;5091130;28;20207;-69
2021/06/16 13:41:08;;;;;;;0.00;0.00;;;;;;;;;;5099218;28;20274;-72
2021/06/16 13:43:35;;;;;;;0.00;0.00;;;;;;;;;;5094263;28;20208;-70
2021/06/16 13:46:03;;;;;;;0.00;0.00;;;;;;;;;;5100018;28;20531;-69
2021/06/16 13:48:29;;;;;;;0.00;0.00;;;;;;;;;;5105979;28;20505;-69
2021/06/16 13:50:56;;;;;;;0.00;0.00;;;;;;;;;;5096953;28;20269;-68
2021/06/16 13:53:23;;;;;;;0.00;0.00;;;;;;;;;;5091234;28;20289;-69
2021/06/16 13:55:49;;;;;;;0.00;0.00;;;;;;;;;;5100527;28;20309;-69
2021/06/16 13:58:16;;;;;;;0.00;0.00;;;;;;;;;;5102141;28;20386;-71
2021/06/16 14:00:43;;;;;;;0.00;0.00;;;;;;;;;;5099470;28;20256;-71
2021/06/16 14:03:10;;;;;;;0.00;0.00;;;;;;;;;;5100659;28;20561;-71
2021/06/16 14:05:37;;;;;;;0.00;0.00;;;;;;;;;;5097264;28;20277;-71
2021/06/16 14:08:04;;;;;;;0.00;0.00;;;;;;;;;;5106194;28;20241;-69
2021/06/16 14:10:31;;;;;;;0.00;0.00;;;;;;;;;;5093695;28;20246;-68
2021/06/16 14:12:57;;;;;;;0.00;0.00;;;;;;;;;;5104305;28;20215;-70
2021/06/16 14:15:24;;;;;;;0.00;0.00;;;;;;;;;;5105608;28;20269;-70
2021/06/16 14:17:50;;;;;;;0.00;0.00;;;;;;;;;;5105291;28;20203;-70
2021/06/16 14:20:18;;;;;;;0.00;0.00;;;;;;;;;;5097836;28;20414;-70
2021/06/16 14:22:47;;;;;;;0.00;0.00;;;;;;;;;;5090995;28;20272;-70
2021/06/16 14:25:13;;;;;;;0.00;0.00;;;;;;;;;;5094032;28;20333;-70
2021/06/16 14:27:40;;;;;;;0.00;0.00;;;;;;;;;;5105518;28;20203;-70
2021/06/16 14:30:07;;;;;;;0.00;0.00;;;;;;;;;;5101598;28;20204;-70
2021/06/16 14:32:33;;;;;;;0.00;0.00;;;;;;;;;;5096167;28;20264;-70
2021/06/16 14:35:00;;;;;;;0.00;0.00;;;;;;;;;;5089831;28;20200;-71
2021/06/16 14:37:27;;;;;;;0.00;0.00;;;;;;;;;;5101510;28;20203;-70
2021/06/16 14:39:54;;;;;;;0.00;0.00;;;;;;;;;;5095978;28;20203;-70
2021/06/16 14:42:21;;;;;;;0.00;0.00;;;;;;;;;;5097638;28;20207;-71
2021/06/16 14:44:47;;;;;;;0.00;0.00;;;;;;;;;;5098769;28;20218;-71
2021/06/16 14:47:14;;;;;;;0.00;0.00;;;;;;;;;;5094802;28;20207;-71
2021/06/16 14:49:40;;;;;;;0.00;0.00;;;;;;;;;;5104983;28;20206;-71